TimeEDT,TemperatureF,Dew PointF,Humidity,Sea Level PressureIn,VisibilityMPH,Wind Direction,Wind SpeedMPH,Gust SpeedMPH,PrecipitationIn,Events,Conditions,WindDirDegrees,DateUTC
12:15 AM,69.8,68.0,94,29.70,10.0,South,10.4,-,0.02,Rain,Rain,190,2013-11-02 04:15:00
12:35 AM,69.8,68.0,94,29.69,10.0,South,9.2,-,0.02,,Overcast,190,2013-11-02 04:35:00
12:55 AM,69.8,68.0,94,29.69,10.0,South,11.5,-,N/A,,Overcast,190,2013-11-02 04:55:00
1:15 AM,69.8,68.0,94,29.69,10.0,SSW,10.4,-,N/A,Rain,Light Rain,200,2013-11-02 05:15:00
1:35 AM,69.8,68.0,94,29.68,10.0,South,8.1,11.5,0.01,Rain,Light Rain,180,2013-11-02 05:35:00
1:55 AM,69.8,68.0,94,29.66,10.0,SW,5.8,-,N/A,Rain,Light Rain,220,2013-11-02 05:55:00
2:15 AM,69.8,68.0,94,29.68,10.0,SSW,5.8,-,N/A,,Light Drizzle,210,2013-11-02 06:15:00
2:35 AM,69.8,68.0,94,29.67,10.0,SSW,8.1,-,N/A,Rain,Light Rain,200,2013-11-02 06:35:00
2:55 AM,69.8,68.0,94,29.64,10.0,SSW,3.5,-,N/A,Rain,Light Rain,210,2013-11-02 06:55:00
3:15 AM,69.8,68.0,94,29.64,10.0,SSW,4.6,-,N/A,,Overcast,210,2013-11-02 07:15:00
3:35 AM,69.8,68.0,94,29.65,10.0,WSW,4.6,-,N/A,Rain,Light Rain,240,2013-11-02 07:35:00
3:55 AM,69.8,66.2,88,29.66,10.0,SW,4.6,-,N/A,,Light Drizzle,230,2013-11-02 07:55:00
4:15 AM,69.8,66.2,88,29.66,10.0,SW,8.1,-,N/A,,Overcast,230,2013-11-02 08:15:00
4:35 AM,68.0,64.4,88,29.65,10.0,WSW,8.1,-,N/A,,Mostly Cloudy,250,2013-11-02 08:35:00
4:55 AM,66.2,64.4,94,29.67,10.0,WSW,9.2,-,N/A,,Mostly Cloudy,250,2013-11-02 08:55:00
5:15 AM,66.2,62.6,88,29.68,10.0,West,8.1,-,N/A,,Scattered Clouds,260,2013-11-02 09:15:00
5:35 AM,64.4,62.6,94,29.67,10.0,West,6.9,-,N/A,,Scattered Clouds,260,2013-11-02 09:35:00
5:55 AM,64.4,62.6,94,29.67,10.0,WSW,4.6,-,N/A,,Mostly Cloudy,250,2013-11-02 09:55:00
6:15 AM,64.4,62.6,94,29.67,10.0,West,5.8,-,N/A,,Overcast,260,2013-11-02 10:15:00
6:35 AM,64.4,62.6,94,29.68,10.0,WSW,3.5,-,N/A,,Overcast,250,2013-11-02 10:35:00
6:55 AM,64.4,62.6,94,29.68,10.0,WSW,4.6,-,N/A,,Overcast,240,2013-11-02 10:55:00
7:15 AM,64.4,62.6,94,29.69,10.0,WSW,4.6,-,N/A,,Overcast,240,2013-11-02 11:15:00
7:35 AM,62.6,62.6,100,29.70,10.0,WSW,3.5,-,N/A,,Mostly Cloudy,250,2013-11-02 11:35:00
7:55 AM,62.6,60.8,94,29.70,10.0,West,4.6,-,N/A,,Mostly Cloudy,260,2013-11-02 11:55:00
8:15 AM,62.6,62.6,100,29.70,10.0,West,4.6,-,N/A,,Overcast,270,2013-11-02 12:15:00
8:35 AM,64.4,62.6,94,29.71,10.0,West,4.6,-,N/A,,Mostly Cloudy,260,2013-11-02 12:35:00
8:55 AM,64.4,62.6,94,29.71,10.0,West,3.5,-,N/A,,Scattered Clouds,270,2013-11-02 12:55:00
9:15 AM,64.4,62.6,94,29.71,10.0,West,3.5,-,N/A,,Scattered Clouds,270,2013-11-02 13:15:00
9:35 AM,64.4,62.6,94,29.71,10.0,WNW,5.8,-,N/A,,Scattered Clouds,300,2013-11-02 13:35:00
9:55 AM,64.4,60.8,88,29.72,10.0,West,4.6,-,N/A,,Clear,270,2013-11-02 13:55:00
10:15 AM,64.4,60.8,88,29.73,10.0,West,4.6,-,N/A,,Clear,280,2013-11-02 14:15:00
10:35 AM,66.2,60.8,83,29.72,10.0,WNW,3.5,-,N/A,,Clear,300,2013-11-02 14:35:00
10:55 AM,66.2,59.0,78,29.72,10.0,WNW,4.6,-,N/A,,Clear,300,2013-11-02 14:55:00
11:15 AM,66.2,57.2,73,29.72,10.0,NW,5.8,-,N/A,,Clear,310,2013-11-02 15:15:00
11:35 AM,68.0,57.2,68,29.71,10.0,NW,5.8,-,N/A,,Clear,310,2013-11-02 15:35:00
11:55 AM,68.0,55.4,64,29.71,10.0,NW,4.6,-,N/A,,Clear,310,2013-11-02 15:55:00
1:15 PM,69.8,48.2,46,29.71,10.0,NW,5.8,-,N/A,,Scattered Clouds,320,2013-11-02 17:15:00
1:35 PM,69.8,48.2,46,29.71,10.0,NNW,4.6,-,N/A,,Scattered Clouds,340,2013-11-02 17:35:00
1:55 PM,69.8,48.2,46,29.71,10.0,North,3.5,-,N/A,,Clear,350,2013-11-02 17:55:00
2:15 PM,69.8,48.2,46,29.71,10.0,NW,4.6,-,N/A,,Clear,320,2013-11-02 18:15:00
2:35 PM,71.6,46.4,41,29.70,10.0,WNW,5.8,-,N/A,,Clear,290,2013-11-02 18:35:00
2:55 PM,71.6,46.4,41,29.69,10.0,NW,5.8,-,N/A,,Clear,310,2013-11-02 18:55:00
3:15 PM,71.6,48.2,43,29.69,10.0,SW,3.5,-,N/A,,Clear,220,2013-11-02 19:15:00
3:35 PM,69.8,48.2,46,29.70,10.0,Calm,Calm,-,N/A,,Clear,0,2013-11-02 19:35:00
3:55 PM,71.6,48.2,43,29.70,10.0,West,6.9,-,N/A,,Clear,260,2013-11-02 19:55:00
4:15 PM,69.8,48.2,46,29.71,10.0,WSW,4.6,-,N/A,,Clear,240,2013-11-02 20:15:00
4:35 PM,69.8,51.8,53,29.70,10.0,West,5.8,-,N/A,,Clear,260,2013-11-02 20:35:00
4:55 PM,69.8,53.6,56,29.71,10.0,West,4.6,-,N/A,,Clear,260,2013-11-02 20:55:00
5:15 PM,68.0,53.6,60,29.71,10.0,WSW,3.5,-,N/A,,Clear,250,2013-11-02 21:15:00
5:35 PM,66.2,55.4,68,29.72,10.0,Calm,Calm,-,N/A,,Clear,0,2013-11-02 21:35:00
5:55 PM,64.4,55.4,73,29.72,10.0,Calm,Calm,-,N/A,,Clear,0,2013-11-02 21:55:00
6:15 PM,64.4,57.2,77,29.74,10.0,Calm,Calm,-,N/A,,Clear,0,2013-11-02 22:15:00
6:35 PM,62.6,55.4,77,29.76,10.0,South,3.5,-,N/A,,Clear,190,2013-11-02 22:35:00
6:55 PM,60.8,55.4,82,29.77,10.0,Calm,Calm,-,N/A,,Clear,0,2013-11-02 22:55:00
7:15 PM,62.6,55.4,77,29.77,10.0,SW,3.5,-,N/A,,Clear,230,2013-11-02 23:15:00
7:35 PM,62.6,53.6,72,29.78,10.0,WSW,3.5,-,N/A,,Clear,240,2013-11-02 23:35:00
7:55 PM,60.8,53.6,77,29.78,10.0,Calm,Calm,-,N/A,,Clear,0,2013-11-02 23:55:00
8:15 PM,60.8,55.4,82,29.78,10.0,Calm,Calm,-,N/A,,Clear,0,2013-11-03 00:15:00
8:35 PM,57.2,55.4,94,29.79,10.0,Calm,Calm,-,N/A,,Clear,0,2013-11-03 00:35:00
8:55 PM,57.2,53.6,88,29.79,10.0,SW,3.5,-,N/A,,Clear,220,2013-11-03 00:55:00
9:15 PM,59.0,51.8,77,29.80,10.0,WSW,4.6,-,N/A,,Clear,250,2013-11-03 01:15:00
9:35 PM,59.0,51.8,77,29.80,10.0,WSW,5.8,-,N/A,,Clear,250,2013-11-03 01:35:00
9:55 PM,59.0,51.8,77,29.83,10.0,North,6.9,17.3,N/A,,Clear,350,2013-11-03 01:55:00
10:15 PM,60.8,48.2,63,29.85,10.0,North,9.2,-,N/A,,Clear,350,2013-11-03 02:15:00
10:35 PM,60.8,48.2,63,29.86,10.0,North,8.1,-,N/A,,Clear,10,2013-11-03 02:35:00
10:55 PM,60.8,46.4,59,29.87,10.0,North,5.8,-,N/A,,Clear,10,2013-11-03 02:55:00
11:15 PM,60.8,44.6,55,29.88,10.0,North,5.8,-,N/A,,Clear,360,2013-11-03 03:15:00
11:35 PM,60.8,44.6,55,29.88,10.0,North,4.6,-,N/A,,Clear,360,2013-11-03 03:35:00
11:55 PM,60.8,42.8,52,29.88,10.0,North,9.2,-,N/A,,Clear,350,2013-11-03 03:55:00